createdAt,value
2023-01-02T00:02:10.393Z,8.60
2023-01-02T00:07:13.145Z,8.80
2023-01-02T00:12:16.276Z,9.80
2023-01-02T00:17:20.631Z,10.00
2023-01-02T00:22:23.548Z,9.30
2023-01-02T00:27:26.346Z,8.70
2023-01-02T00:32:29.071Z,9.20
2023-01-02T00:37:31.850Z,9.40
2023-01-02T00:42:34.627Z,9.20
2023-01-02T00:47:37.471Z,9.40
2023-01-02T00:52:40.238Z,10.30
2023-01-02T00:57:43.039Z,9.30
2023-01-02T01:02:45.853Z,9.50
2023-01-02T01:07:48.813Z,10.00
2023-01-02T01:12:51.793Z,10.20
2023-01-02T01:17:55.198Z,10.00
2023-01-02T01:22:58.014Z,9.70
2023-01-02T01:28:00.875Z,9.50
2023-01-02T01:33:03.845Z,9.60
2023-01-02T01:38:06.555Z,9.60
2023-01-02T01:43:14.454Z,9.80
2023-01-02T01:48:17.235Z,9.90
2023-01-02T01:53:21.989Z,9.40
2023-01-02T01:58:41.962Z,10.00
2023-01-02T02:03:46.802Z,8.90
2023-01-02T02:09:09.823Z,10.90
2023-01-02T02:14:12.614Z,9.40
2023-01-02T02:19:21.460Z,10.10
2023-01-02T02:25:10.645Z,9.70
2023-01-02T02:30:24.968Z,9.80
2023-01-02T02:35:44.013Z,8.80
2023-01-02T02:40:56.890Z,10.00
2023-01-02T02:46:37.998Z,9.60
2023-01-02T02:51:46.336Z,9.40
2023-01-02T02:56:49.487Z,9.60
2023-01-02T03:01:52.471Z,9.80
2023-01-02T03:07:27.832Z,10.20
2023-01-02T03:13:13.046Z,9.10
2023-01-02T03:18:46.897Z,10.20
2023-01-02T03:23:49.999Z,11.00
2023-01-02T03:28:56.383Z,9.20
2023-01-02T03:34:06.509Z,9.10
2023-01-02T03:39:18.651Z,9.30
2023-01-02T03:44:23.106Z,10.10
2023-01-02T03:49:33.068Z,9.40
2023-01-02T03:54:35.833Z,9.00
2023-01-02T04:00:01.625Z,10.50
2023-01-02T04:05:15.089Z,10.20
2023-01-02T04:10:17.990Z,9.90
2023-01-02T04:15:23.910Z,10.10
2023-01-02T04:20:32.029Z,9.80
2023-01-02T04:25:53.029Z,10.00
2023-01-02T04:31:03.280Z,9.70
2023-01-02T04:36:11.125Z,9.40
2023-01-02T04:41:17.662Z,9.50
2023-01-02T04:46:21.098Z,9.10
2023-01-02T04:51:24.176Z,9.90
2023-01-02T04:56:26.954Z,10.40
2023-01-02T05:01:29.787Z,9.70
2023-01-02T05:06:32.948Z,10.00
2023-01-02T05:11:36.109Z,9.10
2023-01-02T05:16:38.824Z,9.80
2023-01-02T05:22:00.485Z,9.70
2023-01-02T05:27:03.321Z,9.70
2023-01-02T05:32:07.500Z,9.10
2023-01-02T05:37:10.291Z,9.90
2023-01-02T05:42:13.486Z,10.00
2023-01-02T05:47:16.689Z,9.60
2023-01-02T05:52:19.612Z,9.40
2023-01-02T05:57:22.496Z,10.10
2023-01-02T06:02:25.738Z,9.90
2023-01-02T06:07:28.850Z,9.40
2023-01-02T06:12:31.622Z,9.10
2023-01-02T06:17:34.447Z,9.50
2023-01-02T06:22:37.288Z,9.60
2023-01-02T06:27:41.570Z,9.60
2023-01-02T06:32:44.693Z,9.00
2023-01-02T06:37:47.531Z,9.00
2023-01-02T06:42:50.336Z,9.60
2023-01-02T06:47:58.045Z,9.20
2023-01-02T06:53:01.982Z,9.50
2023-01-02T06:58:12.298Z,9.00
2023-01-02T07:03:18.040Z,9.00
2023-01-02T07:08:21.311Z,9.30
2023-01-02T07:13:24.157Z,8.60
2023-01-02T07:18:27.032Z,9.80
2023-01-02T07:23:29.969Z,9.50
2023-01-02T07:28:33.931Z,9.40
2023-01-02T07:33:37.139Z,9.40
2023-01-02T07:38:39.993Z,9.00
2023-01-02T07:43:44.449Z,9.00
2023-01-02T07:48:48.531Z,8.70
2023-01-02T07:53:51.460Z,8.90
2023-01-02T07:58:55.936Z,10.00
2023-01-02T08:03:59.734Z,9.70
2023-01-02T08:09:02.579Z,10.60
2023-01-02T08:14:05.825Z,8.80
2023-01-02T08:19:08.641Z,9.00
2023-01-02T08:24:11.497Z,10.80
2023-01-02T08:29:33.044Z,9.10
2023-01-02T08:34:37.352Z,10.70
2023-01-02T08:39:40.235Z,9.30
2023-01-02T08:44:43.700Z,9.40
2023-01-02T08:49:47.811Z,9.30
2023-01-02T08:54:50.646Z,9.10
2023-01-02T08:59:53.471Z,9.40
2023-01-02T09:04:56.217Z,9.30
2023-01-02T09:09:59.443Z,9.60
2023-01-02T09:15:03.681Z,8.90
2023-01-02T09:20:26.631Z,8.90
2023-01-02T09:25:29.504Z,9.20
2023-01-02T09:30:33.697Z,9.60
2023-01-02T09:35:38.079Z,9.70
2023-01-02T09:40:53.068Z,9.50
2023-01-02T09:45:56.124Z,10.00
2023-01-02T09:51:05.577Z,9.30
2023-01-02T09:56:31.916Z,9.70
2023-01-02T10:01:58.173Z,9.30
2023-01-02T10:07:13.426Z,8.90
2023-01-02T10:12:27.788Z,9.50
2023-01-02T10:17:40.384Z,9.80
2023-01-02T10:22:50.258Z,9.40
2023-01-02T10:28:03.602Z,9.30
2023-01-02T10:33:25.567Z,9.30
2023-01-02T10:38:38.417Z,9.60
2023-01-02T10:43:41.247Z,10.10
2023-01-02T10:48:48.519Z,9.30
2023-01-02T10:54:07.402Z,9.60
2023-01-02T10:59:23.596Z,10.30
2023-01-02T11:04:30.251Z,10.20
2023-01-02T11:09:36.119Z,9.60
2023-01-02T11:14:39.317Z,9.50
2023-01-02T11:19:48.123Z,9.90
2023-01-02T11:25:05.576Z,10.00
2023-01-02T11:30:09.587Z,9.70
2023-01-02T11:35:38.507Z,9.20
2023-01-02T11:46:00.197Z,9.70
2023-01-02T11:51:03.182Z,10.50
2023-01-02T11:56:12.760Z,10.50
2023-01-02T12:01:25.192Z,10.00
2023-01-02T12:07:03.902Z,9.30
2023-01-02T12:12:53.997Z,10.50
2023-01-02T12:18:02.719Z,10.40
2023-01-02T12:23:25.828Z,10.00
2023-01-02T12:29:02.963Z,10.40
2023-01-02T12:34:43.579Z,10.40
2023-01-02T12:40:05.680Z,10.30
2023-01-02T12:45:36.926Z,10.20
2023-01-02T12:50:49.045Z,11.40
2023-01-02T12:56:47.099Z,10.70
2023-01-02T13:02:21.982Z,11.10
2023-01-02T13:07:43.758Z,10.70
2023-01-02T13:12:47.045Z,10.40
2023-01-02T13:17:49.821Z,10.70
2023-01-02T13:23:19.150Z,10.20
2023-01-02T13:28:24.389Z,9.90
2023-01-02T13:33:41.430Z,10.40
2023-01-02T13:38:45.618Z,10.10
2023-01-02T13:43:57.509Z,10.00
2023-01-02T13:49:02.639Z,9.70
2023-01-02T13:54:18.221Z,10.40
2023-01-02T13:59:42.185Z,10.20
2023-01-02T14:04:46.431Z,9.80
2023-01-02T14:10:09.180Z,9.90
2023-01-02T14:15:20.736Z,9.80
2023-01-02T14:20:28.281Z,10.70
2023-01-02T14:25:31.840Z,10.60
2023-01-02T14:30:40.796Z,11.50
2023-01-02T14:35:52.811Z,9.50
2023-01-02T14:41:15.658Z,10.90
2023-01-02T14:46:24.557Z,11.30
2023-01-02T14:51:40.418Z,11.40
2023-01-02T14:56:48.689Z,11.30
2023-01-02T15:01:56.223Z,11.80
2023-01-02T15:07:10.657Z,11.70
2023-01-02T15:12:45.794Z,11.70
2023-01-02T15:17:48.721Z,11.00
2023-01-02T15:22:52.968Z,11.90
2023-01-02T15:27:58.603Z,13.30
2023-01-02T15:33:02.214Z,14.70
2023-01-02T15:38:05.341Z,12.80
2023-01-02T15:43:31.148Z,13.30
2023-01-02T15:48:34.333Z,13.50
2023-01-02T15:53:42.737Z,13.90
2023-01-02T15:58:49.551Z,14.10
2023-01-02T16:04:00.827Z,13.10
2023-01-02T16:09:08.508Z,13.10
2023-01-02T16:14:38.814Z,14.10
2023-01-02T16:20:15.885Z,14.70
2023-01-02T16:25:21.794Z,13.50
2023-01-02T16:30:25.537Z,13.10
2023-01-02T16:35:34.404Z,14.10
2023-01-02T16:41:01.692Z,21.00
2023-01-02T16:46:08.801Z,22.70
2023-01-02T16:51:13.079Z,21.30
2023-01-02T16:56:16.216Z,18.20
2023-01-02T17:01:19.169Z,17.40
2023-01-02T17:06:22.245Z,17.20
2023-01-02T17:11:25.101Z,18.00
2023-01-02T17:16:28.020Z,16.30
2023-01-02T17:21:32.982Z,16.80
2023-01-02T17:26:36.097Z,16.10
2023-01-02T17:31:38.835Z,14.30
2023-01-02T17:36:42.528Z,13.50
2023-01-02T17:41:45.432Z,13.10
2023-01-02T17:47:15.647Z,13.50
2023-01-02T17:52:16.358Z,12.70
2023-01-02T17:57:39.265Z,13.20
2023-01-02T18:02:42.368Z,13.60
2023-01-02T18:07:45.495Z,13.50
2023-01-02T18:12:54.371Z,14.30
2023-01-02T18:17:57.415Z,13.30
2023-01-02T18:23:02.506Z,12.50
2023-01-02T18:28:20.517Z,12.90
2023-01-02T18:33:24.954Z,14.40
2023-01-02T18:38:36.594Z,12.50
2023-01-02T18:43:39.506Z,13.30
2023-01-02T18:48:42.630Z,13.20
2023-01-02T18:53:54.379Z,12.70
2023-01-02T18:59:06.598Z,12.80
2023-01-02T19:04:17.812Z,13.10
2023-01-02T19:09:35.297Z,13.70
2023-01-02T19:14:41.006Z,13.60
2023-01-02T19:19:44.458Z,14.10
2023-01-02T19:24:47.462Z,15.80
2023-01-02T19:29:50.755Z,14.90
2023-01-02T19:35:01.145Z,16.00
2023-01-02T19:40:19.416Z,16.00
2023-01-02T19:45:25.586Z,15.70
2023-01-02T19:50:28.657Z,15.50
2023-01-02T19:55:31.503Z,15.60
2023-01-02T20:00:34.686Z,14.80
2023-01-02T20:05:39.708Z,15.20
2023-01-02T20:10:43.199Z,15.40
2023-01-02T20:15:46.090Z,15.60
2023-01-02T20:20:49.289Z,15.30
2023-01-02T20:25:52.221Z,15.50
2023-01-02T20:30:55.337Z,14.10
2023-01-02T20:35:58.191Z,15.50
2023-01-02T20:41:02.211Z,16.30
2023-01-02T20:46:05.205Z,16.30
2023-01-02T20:51:08.025Z,15.40
2023-01-02T20:56:10.826Z,14.70
2023-01-02T21:01:15.817Z,15.50
2023-01-02T21:06:18.776Z,15.90
2023-01-02T21:11:21.534Z,15.90
2023-01-02T21:16:25.132Z,14.30
2023-01-02T21:21:28.087Z,14.40
2023-01-02T21:26:30.936Z,15.20
2023-01-02T21:31:33.721Z,12.80
2023-01-02T21:36:37.075Z,11.70
2023-01-02T21:41:58.634Z,10.00
2023-01-02T21:47:03.306Z,8.80
2023-01-02T21:52:06.745Z,9.60
2023-01-02T21:57:09.996Z,9.40
2023-01-02T22:02:13.093Z,9.20
2023-01-02T22:07:32.436Z,8.30
2023-01-02T22:12:36.570Z,8.70
2023-01-02T22:17:39.691Z,9.20
2023-01-02T22:22:42.646Z,8.20
2023-01-02T22:27:45.535Z,9.00
2023-01-02T22:32:48.323Z,8.60
2023-01-02T22:37:52.262Z,8.00
2023-01-02T22:43:01.051Z,7.90
2023-01-02T22:48:07.979Z,8.10
2023-01-02T22:53:38.035Z,8.40
2023-01-02T22:58:41.003Z,8.10
2023-01-02T23:03:45.146Z,8.20
2023-01-02T23:08:48.093Z,7.50
2023-01-02T23:13:56.336Z,8.00
2023-01-02T23:19:15.177Z,7.70
2023-01-02T23:24:35.432Z,7.10
2023-01-02T23:29:38.472Z,7.90
2023-01-02T23:34:41.613Z,8.00
2023-01-02T23:39:44.443Z,7.70
2023-01-02T23:44:47.387Z,9.00
2023-01-02T23:49:50.139Z,8.80
2023-01-02T23:54:54.055Z,8.60
2023-01-02T23:59:56.881Z,7.80
